sensor_id;sensor_type;location;lat;lon;timestamp;temperature;humidity
47618;DHT22;33336;36.728;-4.414;2022-07-24T00:02:27;30.60;74.10
47618;DHT22;33336;36.728;-4.414;2022-07-24T00:07:31;30.50;74.90
47618;DHT22;33336;36.728;-4.414;2022-07-24T00:12:36;30.60;74.90
47618;DHT22;33336;36.728;-4.414;2022-07-24T00:17:40;30.50;73.70
47618;DHT22;33336;36.728;-4.414;2022-07-24T00:22:43;30.60;72.40
47618;DHT22;33336;36.728;-4.414;2022-07-24T00:27:47;30.60;71.50
47618;DHT22;33336;36.728;-4.414;2022-07-24T00:32:51;30.50;70.60
47618;DHT22;33336;36.728;-4.414;2022-07-24T00:37:55;30.20;70.00
47618;DHT22;33336;36.728;-4.414;2022-07-24T00:42:58;30.00;69.30
47618;DHT22;33336;36.728;-4.414;2022-07-24T00:48:04;29.90;69.10
47618;DHT22;33336;36.728;-4.414;2022-07-24T00:53:07;30.00;68.50
47618;DHT22;33336;36.728;-4.414;2022-07-24T00:58:11;30.00;68.20
47618;DHT22;33336;36.728;-4.414;2022-07-24T01:03:15;30.00;68.20
47618;DHT22;33336;36.728;-4.414;2022-07-24T01:08:20;30.20;68.30
47618;DHT22;33336;36.728;-4.414;2022-07-24T01:13:23;30.20;67.60
47618;DHT22;33336;36.728;-4.414;2022-07-24T01:18:28;30.10;67.50
47618;DHT22;33336;36.728;-4.414;2022-07-24T01:23:32;30.30;66.70
47618;DHT22;33336;36.728;-4.414;2022-07-24T01:28:36;29.90;66.70
47618;DHT22;33336;36.728;-4.414;2022-07-24T01:33:39;30.10;66.80
47618;DHT22;33336;36.728;-4.414;2022-07-24T01:38:43;30.20;66.80
47618;DHT22;33336;36.728;-4.414;2022-07-24T01:43:46;30.00;66.80
47618;DHT22;33336;36.728;-4.414;2022-07-24T01:48:50;30.10;66.80
47618;DHT22;33336;36.728;-4.414;2022-07-24T01:53:54;29.90;66.50
47618;DHT22;33336;36.728;-4.414;2022-07-24T01:58:58;29.60;66.30
47618;DHT22;33336;36.728;-4.414;2022-07-24T02:04:01;29.40;66.40
47618;DHT22;33336;36.728;-4.414;2022-07-24T02:09:06;29.30;66.50
47618;DHT22;33336;36.728;-4.414;2022-07-24T02:14:09;29.40;66.60
47618;DHT22;33336;36.728;-4.414;2022-07-24T02:19:13;29.70;66.90
47618;DHT22;33336;36.728;-4.414;2022-07-24T02:24:17;29.60;66.90
47618;DHT22;33336;36.728;-4.414;2022-07-24T02:29:21;29.60;66.70
47618;DHT22;33336;36.728;-4.414;2022-07-24T02:34:23;29.50;66.70
47618;DHT22;33336;36.728;-4.414;2022-07-24T02:39:28;29.60;66.70
47618;DHT22;33336;36.728;-4.414;2022-07-24T02:44:31;29.70;66.00
47618;DHT22;33336;36.728;-4.414;2022-07-24T02:49:35;29.70;65.70
47618;DHT22;33336;36.728;-4.414;2022-07-24T02:54:39;29.70;65.50
47618;DHT22;33336;36.728;-4.414;2022-07-24T02:59:42;29.50;65.90
47618;DHT22;33336;36.728;-4.414;2022-07-24T03:04:47;29.60;65.50
47618;DHT22;33336;36.728;-4.414;2022-07-24T03:09:52;29.30;65.10
47618;DHT22;33336;36.728;-4.414;2022-07-24T03:14:55;29.20;65.40
47618;DHT22;33336;36.728;-4.414;2022-07-24T03:19:59;29.40;65.80
47618;DHT22;33336;36.728;-4.414;2022-07-24T03:25:03;29.30;65.60
47618;DHT22;33336;36.728;-4.414;2022-07-24T03:30:08;29.50;65.80
47618;DHT22;33336;36.728;-4.414;2022-07-24T03:35:11;29.30;65.40
47618;DHT22;33336;36.728;-4.414;2022-07-24T03:40:17;29.20;65.40
47618;DHT22;33336;36.728;-4.414;2022-07-24T03:45:20;29.20;65.40
47618;DHT22;33336;36.728;-4.414;2022-07-24T03:50:24;29.20;65.60
47618;DHT22;33336;36.728;-4.414;2022-07-24T03:55:28;29.10;65.70
47618;DHT22;33336;36.728;-4.414;2022-07-24T04:00:31;29.10;65.90
47618;DHT22;33336;36.728;-4.414;2022-07-24T04:05:34;28.90;66.30
47618;DHT22;33336;36.728;-4.414;2022-07-24T04:10:38;29.00;66.20
47618;DHT22;33336;36.728;-4.414;2022-07-24T04:15:41;28.80;66.30
47618;DHT22;33336;36.728;-4.414;2022-07-24T04:20:45;28.80;66.40
47618;DHT22;33336;36.728;-4.414;2022-07-24T04:25:49;28.80;66.50
47618;DHT22;33336;36.728;-4.414;2022-07-24T04:30:53;28.80;66.50
47618;DHT22;33336;36.728;-4.414;2022-07-24T04:35:55;28.70;66.40
47618;DHT22;33336;36.728;-4.414;2022-07-24T04:41:00;28.60;66.50
47618;DHT22;33336;36.728;-4.414;2022-07-24T04:46:04;28.60;66.70
47618;DHT22;33336;36.728;-4.414;2022-07-24T04:51:08;28.50;66.80
47618;DHT22;33336;36.728;-4.414;2022-07-24T04:56:12;28.50;67.30
47618;DHT22;33336;36.728;-4.414;2022-07-24T05:01:15;28.50;67.60
47618;DHT22;33336;36.728;-4.414;2022-07-24T05:06:17;28.50;67.70
47618;DHT22;33336;36.728;-4.414;2022-07-24T05:11:22;28.40;67.70
47618;DHT22;33336;36.728;-4.414;2022-07-24T05:16:25;28.50;67.90
47618;DHT22;33336;36.728;-4.414;2022-07-24T05:21:28;28.50;67.60
47618;DHT22;33336;36.728;-4.414;2022-07-24T05:26:32;28.10;67.10
47618;DHT22;33336;36.728;-4.414;2022-07-24T05:31:35;28.00;66.80
47618;DHT22;33336;36.728;-4.414;2022-07-24T05:36:38;27.80;67.40
47618;DHT22;33336;36.728;-4.414;2022-07-24T05:41:44;28.20;67.30
47618;DHT22;33336;36.728;-4.414;2022-07-24T05:46:47;28.10;67.80
47618;DHT22;33336;36.728;-4.414;2022-07-24T05:51:50;28.20;67.60
47618;DHT22;33336;36.728;-4.414;2022-07-24T05:56:55;28.30;66.50
47618;DHT22;33336;36.728;-4.414;2022-07-24T06:01:57;28.40;67.20
47618;DHT22;33336;36.728;-4.414;2022-07-24T06:07:03;28.50;67.30
47618;DHT22;33336;36.728;-4.414;2022-07-24T06:12:08;28.50;69.40
47618;DHT22;33336;36.728;-4.414;2022-07-24T06:17:11;28.40;68.90
47618;DHT22;33336;36.728;-4.414;2022-07-24T06:22:14;28.60;69.20
47618;DHT22;33336;36.728;-4.414;2022-07-24T06:27:19;28.60;68.70
47618;DHT22;33336;36.728;-4.414;2022-07-24T06:32:22;28.50;68.40
47618;DHT22;33336;36.728;-4.414;2022-07-24T06:37:25;28.80;69.00
47618;DHT22;33336;36.728;-4.414;2022-07-24T06:42:30;28.50;70.90
47618;DHT22;33336;36.728;-4.414;2022-07-24T06:47:34;28.60;71.10
47618;DHT22;33336;36.728;-4.414;2022-07-24T06:52:36;28.80;74.20
47618;DHT22;33336;36.728;-4.414;2022-07-24T06:57:41;28.70;76.70
47618;DHT22;33336;36.728;-4.414;2022-07-24T07:02:44;28.40;77.20
47618;DHT22;33336;36.728;-4.414;2022-07-24T07:07:47;28.60;76.10
47618;DHT22;33336;36.728;-4.414;2022-07-24T07:12:52;28.70;76.30
47618;DHT22;33336;36.728;-4.414;2022-07-24T07:17:55;28.40;77.50
47618;DHT22;33336;36.728;-4.414;2022-07-24T07:22:58;28.20;81.40
47618;DHT22;33336;36.728;-4.414;2022-07-24T07:28:03;27.90;82.80
47618;DHT22;33336;36.728;-4.414;2022-07-24T07:33:06;28.60;82.80
47618;DHT22;33336;36.728;-4.414;2022-07-24T07:38:09;28.20;87.60
47618;DHT22;33336;36.728;-4.414;2022-07-24T07:43:14;28.50;88.40
47618;DHT22;33336;36.728;-4.414;2022-07-24T07:48:17;28.10;89.80
47618;DHT22;33336;36.728;-4.414;2022-07-24T07:53:20;28.60;88.20
47618;DHT22;33336;36.728;-4.414;2022-07-24T07:58:25;29.00;88.00
47618;DHT22;33336;36.728;-4.414;2022-07-24T08:03:28;28.00;90.60
47618;DHT22;33336;36.728;-4.414;2022-07-24T08:08:32;27.20;92.40
47618;DHT22;33336;36.728;-4.414;2022-07-24T08:13:36;27.10;93.80
47618;DHT22;33336;36.728;-4.414;2022-07-24T08:18:39;27.10;93.00
47618;DHT22;33336;36.728;-4.414;2022-07-24T08:23:42;27.90;92.00
47618;DHT22;33336;36.728;-4.414;2022-07-24T08:28:47;27.70;90.40
47618;DHT22;33336;36.728;-4.414;2022-07-24T08:33:50;28.60;89.60
47618;DHT22;33336;36.728;-4.414;2022-07-24T08:38:53;29.00;84.20
47618;DHT22;33336;36.728;-4.414;2022-07-24T08:43:58;29.30;83.20
47618;DHT22;33336;36.728;-4.414;2022-07-24T08:49:02;29.10;84.00
47618;DHT22;33336;36.728;-4.414;2022-07-24T08:54:05;29.70;82.80
47618;DHT22;33336;36.728;-4.414;2022-07-24T08:59:17;30.20;82.50
47618;DHT22;33336;36.728;-4.414;2022-07-24T09:04:36;29.50;82.20
47618;DHT22;33336;36.728;-4.414;2022-07-24T09:09:40;29.30;83.50
47618;DHT22;33336;36.728;-4.414;2022-07-24T09:14:45;29.40;84.40
47618;DHT22;33336;36.728;-4.414;2022-07-24T09:19:51;29.90;83.10
47618;DHT22;33336;36.728;-4.414;2022-07-24T09:25:09;29.70;83.60
47618;DHT22;33336;36.728;-4.414;2022-07-24T09:30:27;30.30;80.80
47618;DHT22;33336;36.728;-4.414;2022-07-24T09:35:32;30.60;78.60
47618;DHT22;33336;36.728;-4.414;2022-07-24T09:40:37;30.60;75.60
47618;DHT22;33336;36.728;-4.414;2022-07-24T09:45:59;30.60;77.70
47618;DHT22;33336;36.728;-4.414;2022-07-24T09:51:09;29.70;79.50
47618;DHT22;33336;36.728;-4.414;2022-07-24T09:56:14;29.20;83.40
47618;DHT22;33336;36.728;-4.414;2022-07-24T10:01:21;29.10;82.30
47618;DHT22;33336;36.728;-4.414;2022-07-24T10:06:28;29.50;79.80
47618;DHT22;33336;36.728;-4.414;2022-07-24T10:11:34;29.60;79.40
47618;DHT22;33336;36.728;-4.414;2022-07-24T10:16:41;30.20;78.10
47618;DHT22;33336;36.728;-4.414;2022-07-24T10:21:53;30.60;72.30
47618;DHT22;33336;36.728;-4.414;2022-07-24T10:27:03;30.10;74.20
47618;DHT22;33336;36.728;-4.414;2022-07-24T10:32:10;30.40;75.30
47618;DHT22;33336;36.728;-4.414;2022-07-24T10:37:21;30.30;74.50
47618;DHT22;33336;36.728;-4.414;2022-07-24T10:42:25;30.90;72.10
47618;DHT22;33336;36.728;-4.414;2022-07-24T10:47:30;31.20;74.70
47618;DHT22;33336;36.728;-4.414;2022-07-24T10:52:35;30.80;72.80
47618;DHT22;33336;36.728;-4.414;2022-07-24T10:57:48;31.80;72.00
47618;DHT22;33336;36.728;-4.414;2022-07-24T11:03:00;31.50;68.40
47618;DHT22;33336;36.728;-4.414;2022-07-24T11:13:52;31.50;74.90
47618;DHT22;33336;36.728;-4.414;2022-07-24T11:19:27;31.40;79.90
47618;DHT22;33336;36.728;-4.414;2022-07-24T11:24:31;31.70;82.60
47618;DHT22;33336;36.728;-4.414;2022-07-24T11:29:35;32.30;82.60
47618;DHT22;33336;36.728;-4.414;2022-07-24T11:34:44;32.10;84.00
47618;DHT22;33336;36.728;-4.414;2022-07-24T11:39:47;31.60;81.70
47618;DHT22;33336;36.728;-4.414;2022-07-24T11:44:51;31.40;83.00
47618;DHT22;33336;36.728;-4.414;2022-07-24T11:49:58;31.90;85.40
47618;DHT22;33336;36.728;-4.414;2022-07-24T11:55:06;32.40;85.70
47618;DHT22;33336;36.728;-4.414;2022-07-24T12:00:12;33.80;83.50
47618;DHT22;33336;36.728;-4.414;2022-07-24T12:05:25;33.30;85.40
47618;DHT22;33336;36.728;-4.414;2022-07-24T12:10:29;33.50;84.90
47618;DHT22;33336;36.728;-4.414;2022-07-24T12:15:38;34.20;83.40
47618;DHT22;33336;36.728;-4.414;2022-07-24T12:20:44;34.20;83.60
47618;DHT22;33336;36.728;-4.414;2022-07-24T12:25:47;33.90;84.70
47618;DHT22;33336;36.728;-4.414;2022-07-24T12:30:51;33.10;86.80
47618;DHT22;33336;36.728;-4.414;2022-07-24T12:35:57;34.30;85.60
47618;DHT22;33336;36.728;-4.414;2022-07-24T12:41:04;34.30;85.90
47618;DHT22;33336;36.728;-4.414;2022-07-24T12:46:10;34.40;85.70
47618;DHT22;33336;36.728;-4.414;2022-07-24T12:51:14;33.90;87.10
47618;DHT22;33336;36.728;-4.414;2022-07-24T12:56:17;34.00;87.60
47618;DHT22;33336;36.728;-4.414;2022-07-24T13:01:21;33.70;88.00
47618;DHT22;33336;36.728;-4.414;2022-07-24T13:06:38;33.30;88.90
47618;DHT22;33336;36.728;-4.414;2022-07-24T13:11:42;32.40;90.30
47618;DHT22;33336;36.728;-4.414;2022-07-24T13:16:47;32.70;90.70
47618;DHT22;33336;36.728;-4.414;2022-07-24T13:21:51;33.40;89.60
47618;DHT22;33336;36.728;-4.414;2022-07-24T13:26:55;32.60;90.80
47618;DHT22;33336;36.728;-4.414;2022-07-24T13:31:58;32.50;90.50
47618;DHT22;33336;36.728;-4.414;2022-07-24T13:37:03;32.70;90.90
47618;DHT22;33336;36.728;-4.414;2022-07-24T13:42:06;33.70;90.00
47618;DHT22;33336;36.728;-4.414;2022-07-24T13:47:10;34.30;88.00
47618;DHT22;33336;36.728;-4.414;2022-07-24T13:52:15;35.00;86.50
47618;DHT22;33336;36.728;-4.414;2022-07-24T13:57:18;34.30;87.30
47618;DHT22;33336;36.728;-4.414;2022-07-24T14:02:21;35.30;86.30
47618;DHT22;33336;36.728;-4.414;2022-07-24T14:07:26;35.00;85.10
47618;DHT22;33336;36.728;-4.414;2022-07-24T14:12:28;34.40;86.60
47618;DHT22;33336;36.728;-4.414;2022-07-24T14:17:32;34.40;87.90
47618;DHT22;33336;36.728;-4.414;2022-07-24T14:22:37;33.70;87.60
47618;DHT22;33336;36.728;-4.414;2022-07-24T14:27:40;34.30;84.70
47618;DHT22;33336;36.728;-4.414;2022-07-24T14:32:43;35.60;84.40
47618;DHT22;33336;36.728;-4.414;2022-07-24T14:37:48;36.30;83.10
47618;DHT22;33336;36.728;-4.414;2022-07-24T14:42:51;36.90;81.90
47618;DHT22;33336;36.728;-4.414;2022-07-24T14:47:54;36.90;81.40
47618;DHT22;33336;36.728;-4.414;2022-07-24T14:52:58;37.20;81.20
47618;DHT22;33336;36.728;-4.414;2022-07-24T14:58:02;37.70;79.70
47618;DHT22;33336;36.728;-4.414;2022-07-24T15:03:05;37.60;79.20
47618;DHT22;33336;36.728;-4.414;2022-07-24T15:08:09;37.30;79.90
47618;DHT22;33336;36.728;-4.414;2022-07-24T15:13:12;36.70;80.80
47618;DHT22;33336;36.728;-4.414;2022-07-24T15:18:15;36.50;81.30
47618;DHT22;33336;36.728;-4.414;2022-07-24T15:23:19;36.50;81.30
47618;DHT22;33336;36.728;-4.414;2022-07-24T15:28:22;36.50;81.60
47618;DHT22;33336;36.728;-4.414;2022-07-24T15:33:25;36.20;82.20
47618;DHT22;33336;36.728;-4.414;2022-07-24T15:38:30;36.30;82.00
47618;DHT22;33336;36.728;-4.414;2022-07-24T15:43:32;37.10;80.80
47618;DHT22;33336;36.728;-4.414;2022-07-24T15:48:35;37.00;80.50
47618;DHT22;33336;36.728;-4.414;2022-07-24T15:53:40;37.00;80.40
47618;DHT22;33336;36.728;-4.414;2022-07-24T15:58:43;37.00;79.90
47618;DHT22;33336;36.728;-4.414;2022-07-24T16:03:46;35.80;82.30
47618;DHT22;33336;36.728;-4.414;2022-07-24T16:08:51;36.00;81.90
47618;DHT22;33336;36.728;-4.414;2022-07-24T16:13:53;36.40;81.20
47618;DHT22;33336;36.728;-4.414;2022-07-24T16:18:56;35.90;81.80
47618;DHT22;33336;36.728;-4.414;2022-07-24T16:24:01;35.80;81.60
47618;DHT22;33336;36.728;-4.414;2022-07-24T16:29:04;35.50;81.90
47618;DHT22;33336;36.728;-4.414;2022-07-24T16:34:07;35.60;81.80
47618;DHT22;33336;36.728;-4.414;2022-07-24T16:39:12;35.30;82.70
47618;DHT22;33336;36.728;-4.414;2022-07-24T16:44:14;35.30;81.10
47618;DHT22;33336;36.728;-4.414;2022-07-24T16:49:18;34.90;81.60
47618;DHT22;33336;36.728;-4.414;2022-07-24T16:54:22;34.80;82.10
47618;DHT22;33336;36.728;-4.414;2022-07-24T16:59:26;34.50;82.20
47618;DHT22;33336;36.728;-4.414;2022-07-24T17:04:29;34.60;82.20
47618;DHT22;33336;36.728;-4.414;2022-07-24T17:09:34;34.60;81.10
47618;DHT22;33336;36.728;-4.414;2022-07-24T17:14:37;33.70;84.00
47618;DHT22;33336;36.728;-4.414;2022-07-24T17:19:40;33.40;84.00
47618;DHT22;33336;36.728;-4.414;2022-07-24T17:24:45;33.90;84.30
47618;DHT22;33336;36.728;-4.414;2022-07-24T17:29:48;34.40;81.90
47618;DHT22;33336;36.728;-4.414;2022-07-24T17:34:51;33.90;81.60
47618;DHT22;33336;36.728;-4.414;2022-07-24T17:39:57;33.40;83.70
47618;DHT22;33336;36.728;-4.414;2022-07-24T17:45:00;33.50;84.10
47618;DHT22;33336;36.728;-4.414;2022-07-24T17:50:04;34.10;82.90
47618;DHT22;33336;36.728;-4.414;2022-07-24T17:55:10;34.20;82.90
47618;DHT22;33336;36.728;-4.414;2022-07-24T18:00:13;34.10;84.10
47618;DHT22;33336;36.728;-4.414;2022-07-24T18:05:17;33.90;84.30
47618;DHT22;33336;36.728;-4.414;2022-07-24T18:10:22;32.40;89.50
47618;DHT22;33336;36.728;-4.414;2022-07-24T18:15:24;32.50;88.50
47618;DHT22;33336;36.728;-4.414;2022-07-24T18:20:28;32.90;89.50
47618;DHT22;33336;36.728;-4.414;2022-07-24T18:25:38;32.30;90.00
47618;DHT22;33336;36.728;-4.414;2022-07-24T18:30:41;32.30;90.60
47618;DHT22;33336;36.728;-4.414;2022-07-24T18:35:50;32.30;90.80
47618;DHT22;33336;36.728;-4.414;2022-07-24T18:40:55;32.50;90.70
47618;DHT22;33336;36.728;-4.414;2022-07-24T18:45:58;32.80;90.10
47618;DHT22;33336;36.728;-4.414;2022-07-24T18:51:03;33.00;89.50
47618;DHT22;33336;36.728;-4.414;2022-07-24T18:56:08;32.80;89.80
47618;DHT22;33336;36.728;-4.414;2022-07-24T19:01:11;32.80;90.10
47618;DHT22;33336;36.728;-4.414;2022-07-24T19:06:14;32.40;90.00
47618;DHT22;33336;36.728;-4.414;2022-07-24T19:11:18;32.40;90.20
47618;DHT22;33336;36.728;-4.414;2022-07-24T19:16:24;32.60;90.00
47618;DHT22;33336;36.728;-4.414;2022-07-24T19:21:27;32.40;90.30
47618;DHT22;33336;36.728;-4.414;2022-07-24T19:26:32;32.30;90.60
47618;DHT22;33336;36.728;-4.414;2022-07-24T19:31:54;32.30;90.20
47618;DHT22;33336;36.728;-4.414;2022-07-24T19:37:00;32.20;90.60
47618;DHT22;33336;36.728;-4.414;2022-07-24T19:42:18;32.40;90.60
47618;DHT22;33336;36.728;-4.414;2022-07-24T19:47:25;32.20;90.60
47618;DHT22;33336;36.728;-4.414;2022-07-24T19:52:28;32.00;91.20
47618;DHT22;33336;36.728;-4.414;2022-07-24T19:57:33;32.10;91.40
47618;DHT22;33336;36.728;-4.414;2022-07-24T20:02:35;32.40;90.90
47618;DHT22;33336;36.728;-4.414;2022-07-24T20:07:42;32.00;91.40
47618;DHT22;33336;36.728;-4.414;2022-07-24T20:12:52;31.90;91.70
47618;DHT22;33336;36.728;-4.414;2022-07-24T20:17:55;31.70;91.80
47618;DHT22;33336;36.728;-4.414;2022-07-24T20:22:58;30.90;92.70
47618;DHT22;33336;36.728;-4.414;2022-07-24T20:28:03;30.60;93.20
47618;DHT22;33336;36.728;-4.414;2022-07-24T20:33:06;30.90;93.20
47618;DHT22;33336;36.728;-4.414;2022-07-24T20:38:09;31.10;93.60
47618;DHT22;33336;36.728;-4.414;2022-07-24T20:43:13;30.70;94.10
47618;DHT22;33336;36.728;-4.414;2022-07-24T20:48:17;30.70;94.10
47618;DHT22;33336;36.728;-4.414;2022-07-24T20:53:20;30.30;95.30
47618;DHT22;33336;36.728;-4.414;2022-07-24T20:58:25;30.20;96.00
47618;DHT22;33336;36.728;-4.414;2022-07-24T21:03:27;29.70;96.60
47618;DHT22;33336;36.728;-4.414;2022-07-24T21:08:31;30.10;96.60
47618;DHT22;33336;36.728;-4.414;2022-07-24T21:13:35;30.20;96.50
47618;DHT22;33336;36.728;-4.414;2022-07-24T21:18:39;30.20;96.50
47618;DHT22;33336;36.728;-4.414;2022-07-24T21:23:42;29.40;97.50
47618;DHT22;33336;36.728;-4.414;2022-07-24T21:28:47;29.10;98.60
47618;DHT22;33336;36.728;-4.414;2022-07-24T21:33:49;29.00;98.60
47618;DHT22;33336;36.728;-4.414;2022-07-24T21:38:52;28.90;99.60
47618;DHT22;33336;36.728;-4.414;2022-07-24T21:43:57;28.80;99.40
47618;DHT22;33336;36.728;-4.414;2022-07-24T21:49:00;29.00;99.60
47618;DHT22;33336;36.728;-4.414;2022-07-24T21:54:03;28.80;99.90
47618;DHT22;33336;36.728;-4.414;2022-07-24T21:59:08;28.80;99.90
47618;DHT22;33336;36.728;-4.414;2022-07-24T22:04:10;28.60;99.90
47618;DHT22;33336;36.728;-4.414;2022-07-24T22:09:14;28.80;99.90
47618;DHT22;33336;36.728;-4.414;2022-07-24T22:14:19;28.40;99.90
47618;DHT22;33336;36.728;-4.414;2022-07-24T22:19:22;28.20;99.90
47618;DHT22;33336;36.728;-4.414;2022-07-24T22:24:25;28.10;99.90
47618;DHT22;33336;36.728;-4.414;2022-07-24T22:29:30;28.30;99.90
47618;DHT22;33336;36.728;-4.414;2022-07-24T22:34:33;28.30;99.90
47618;DHT22;33336;36.728;-4.414;2022-07-24T22:39:36;28.40;99.90
47618;DHT22;33336;36.728;-4.414;2022-07-24T22:44:41;28.70;99.90
47618;DHT22;33336;36.728;-4.414;2022-07-24T22:49:44;28.50;99.90
47618;DHT22;33336;36.728;-4.414;2022-07-24T22:54:48;29.20;99.90
47618;DHT22;33336;36.728;-4.414;2022-07-24T22:59:53;29.40;99.30
47618;DHT22;33336;36.728;-4.414;2022-07-24T23:04:56;29.70;98.90
47618;DHT22;33336;36.728;-4.414;2022-07-24T23:09:59;29.90;98.30
47618;DHT22;33336;36.728;-4.414;2022-07-24T23:15:06;29.30;98.90
47618;DHT22;33336;36.728;-4.414;2022-07-24T23:20:11;29.10;99.50
47618;DHT22;33336;36.728;-4.414;2022-07-24T23:25:13;28.70;99.90
47618;DHT22;33336;36.728;-4.414;2022-07-24T23:30:19;28.80;99.80
47618;DHT22;33336;36.728;-4.414;2022-07-24T23:35:21;29.10;99.70
47618;DHT22;33336;36.728;-4.414;2022-07-24T23:40:25;28.90;99.90
47618;DHT22;33336;36.728;-4.414;2022-07-24T23:45:29;29.10;99.60
47618;DHT22;33336;36.728;-4.414;2022-07-24T23:50:33;28.90;99.90
47618;DHT22;33336;36.728;-4.414;2022-07-24T23:55:36;29.10;99.20
